Time;durP1;ratioP1;P1;durP2;ratioP2;P2;SDS_P1;SDS_P2;PMS_P1;PMS_P2;Temp;Humidity;BMP_temperature;BMP_pressure;BME280_temperature;BME280_humidity;BME280_pressure;Samples;Min_cycle;Max_cycle;Signal;HPM_P1;HPM_P2
2020/12/04 00:01:09;;;;;;;5.65;2.65;;;28.90;66.50;;;;;;5007601;28;20069;-76
2020/12/04 00:03:36;;;;;;;6.32;3.15;;;29.00;67.80;;;;;;5007066;28;20028;-76
2020/12/04 00:06:04;;;;;;;6.82;3.20;;;28.80;65.80;;;;;;5027849;23;20173;-76
2020/12/04 00:08:31;;;;;;;5.88;4.03;;;28.60;67.00;;;;;;4991062;28;20531;-77
2020/12/04 00:10:58;;;;;;;8.65;3.33;;;29.00;67.80;;;;;;4991168;28;20041;-76
2020/12/04 00:13:26;;;;;;;5.38;3.03;;;29.50;67.40;;;;;;4994640;28;20022;-75
2020/12/04 00:15:53;;;;;;;10.82;3.92;;;29.60;64.80;;;;;;4992153;28;20359;-76
2020/12/04 00:18:20;;;;;;;9.38;3.13;;;29.90;63.70;;;;;;4990122;28;20027;-76
2020/12/04 00:20:48;;;;;;;5.40;3.10;;;29.80;64.20;;;;;;4990775;28;20026;-75
2020/12/04 00:23:15;;;;;;;6.68;3.22;;;29.90;63.70;;;;;;4990687;28;20085;-76
2020/12/04 00:25:42;;;;;;;6.50;3.03;;;29.60;64.10;;;;;;4989637;28;20034;-76
2020/12/04 00:28:09;;;;;;;10.25;3.15;;;29.90;64.60;;;;;;4991858;28;20494;-77
2020/12/04 00:30:37;;;;;;;6.78;3.40;;;30.00;64.50;;;;;;4990237;28;20474;-76
2020/12/04 00:33:04;;;;;;;7.45;3.28;;;29.80;65.80;;;;;;4990304;28;20045;-76
2020/12/04 00:35:32;;;;;;;4.97;3.17;;;30.10;62.50;;;;;;4986354;28;20046;-75
2020/12/04 00:37:59;;;;;;;6.55;3.78;;;30.10;62.30;;;;;;4989227;28;20030;-76
2020/12/04 00:40:26;;;;;;;5.57;3.58;;;30.40;63.90;;;;;;4987573;28;20026;-76
2020/12/04 00:42:54;;;;;;;6.07;3.28;;;30.70;62.20;;;;;;4990599;28;20096;-76
2020/12/04 00:45:21;;;;;;;7.13;3.25;;;30.70;63.60;;;;;;4989413;28;20092;-77
2020/12/04 00:47:48;;;;;;;6.90;3.72;;;30.60;63.10;;;;;;4989759;28;20511;-76
2020/12/04 00:50:16;;;;;;;5.90;3.40;;;30.80;62.90;;;;;;4989405;28;20479;-76
2020/12/04 00:52:43;;;;;;;5.90;2.85;;;31.10;62.50;;;;;;4988823;28;20102;-76
2020/12/04 00:55:10;;;;;;;6.45;3.25;;;31.00;61.60;;;;;;4988295;28;20575;-76
2020/12/04 00:57:38;;;;;;;5.28;2.72;;;31.00;60.20;;;;;;4989907;28;20109;-76
2020/12/04 01:00:06;;;;;;;7.20;2.17;;;31.00;58.50;;;;;;4988212;28;20030;-77
2020/12/04 01:02:33;;;;;;;3.75;2.42;;;31.20;58.80;;;;;;4987868;28;20046;-76
2020/12/04 01:05:01;;;;;;;8.43;2.75;;;31.40;58.10;;;;;;5002611;23;20062;-76
2020/12/04 01:07:28;;;;;;;6.78;2.03;;;31.20;57.10;;;;;;5009550;23;20049;-75
2020/12/04 01:09:56;;;;;;;5.28;2.10;;;31.20;57.70;;;;;;4943870;23;2645618;-77
2020/12/04 01:12:23;;;;;;;3.55;1.90;;;31.70;56.30;;;;;;5033195;28;20021;-77
2020/12/04 01:14:50;;;;;;;5.30;1.70;;;32.00;58.00;;;;;;5037032;23;20056;-75
2020/12/04 01:17:18;;;;;;;5.20;1.77;;;31.90;57.30;;;;;;5028294;28;20022;-78
2020/12/04 01:19:45;;;;;;;2.95;1.48;;;31.70;53.80;;;;;;5017613;28;20059;-77
2020/12/04 01:22:14;;;;;;;6.50;2.08;;;31.70;54.50;;;;;;5027110;23;20117;-74
2020/12/04 01:24:42;;;;;;;7.00;2.80;;;31.90;55.60;;;;;;5016840;28;20037;-76
2020/12/04 01:27:09;;;;;;;4.75;2.22;;;32.10;54.20;;;;;;5028930;28;20375;-77
2020/12/04 01:29:36;;;;;;;11.02;2.80;;;32.30;55.40;;;;;;5029611;28;20030;-79
2020/12/04 01:32:04;;;;;;;6.30;2.75;;;32.70;55.70;;;;;;4998095;28;20026;-78
2020/12/04 01:34:31;;;;;;;4.50;1.80;;;32.70;54.80;;;;;;5010079;28;20032;-78
2020/12/04 01:36:58;;;;;;;4.95;2.33;;;32.40;54.20;;;;;;5013167;28;20018;-76
2020/12/04 01:39:26;;;;;;;4.25;1.90;;;32.20;54.10;;;;;;5011910;28;20274;-74
2020/12/04 01:41:53;;;;;;;4.65;2.00;;;32.20;54.80;;;;;;4982224;23;20051;-76
2020/12/04 01:44:21;;;;;;;5.90;2.00;;;32.20;52.50;;;;;;4949651;28;20039;-76
2020/12/04 01:46:50;;;;;;;5.78;2.08;;;32.70;54.00;;;;;;4950947;28;20031;-76
2020/12/04 01:49:18;;;;;;;4.15;2.15;;;33.40;52.70;;;;;;4948576;28;20019;-76
2020/12/04 01:51:47;;;;;;;4.55;1.70;;;33.10;52.80;;;;;;4954496;28;20132;-76
2020/12/04 01:54:15;;;;;;;5.32;2.70;;;33.10;53.00;;;;;;4951831;28;20100;-76
2020/12/04 01:56:43;;;;;;;7.38;3.08;;;33.80;59.10;;;;;;4952957;29;20520;-77
2020/12/04 01:59:11;;;;;;;15.57;5.18;;;34.20;62.80;;;;;;4936637;29;20023;-77
2020/12/04 02:01:43;;;;;;;10.60;3.72;;;33.40;69.40;;;;;;4944297;28;20043;-77
2020/12/04 02:04:15;;;;;;;16.63;4.47;;;32.80;71.10;;;;;;4949445;29;20169;-77
2020/12/04 02:06:54;;;;;;;16.02;4.47;;;31.40;74.40;;;;;;4949523;28;20340;-77
2020/12/04 02:09:30;;;;;;;11.63;4.38;;;31.00;77.70;;;;;;4944243;29;20392;-77
2020/12/04 02:12:01;;;;;;;9.05;4.15;;;30.90;79.40;;;;;;4948404;28;20539;-77
2020/12/04 02:14:30;;;;;;;13.82;4.35;;;30.80;77.10;;;;;;5028050;23;20040;-77
2020/12/04 02:17:06;;;;;;;12.73;4.20;;;30.20;78.80;;;;;;5050593;28;20035;-78
2020/12/04 02:19:43;;;;;;;12.98;4.40;;;30.10;78.70;;;;;;5048520;28;20381;-77
2020/12/04 02:22:13;;;;;;;10.38;4.82;;;29.70;79.80;;;;;;5049650;28;20017;-78
2020/12/04 02:24:41;;;;;;;13.38;5.07;;;29.50;83.10;;;;;;5028883;28;20556;-77
2020/12/04 02:27:15;;;;;;;11.07;4.38;;;30.20;81.40;;;;;;5017924;28;20505;-77
2020/12/04 02:29:42;;;;;;;;;;;29.90;81.30;;;;;;5025501;28;20021;-77
2020/12/04 02:32:15;;;;;;;10.73;4.95;;;30.10;83.80;;;;;;5051877;28;20380;-77
2020/12/04 02:34:43;;;;;;;13.70;4.65;;;30.10;78.10;;;;;;5048631;28;20025;-77
2020/12/04 02:37:11;;;;;;;14.07;5.15;;;30.50;81.10;;;;;;5029781;28;20555;-78
2020/12/04 02:39:38;;;;;;;10.27;4.93;;;30.70;81.60;;;;;;5035442;28;20140;-77
2020/12/04 02:42:06;;;;;;;13.77;5.05;;;30.50;80.60;;;;;;5047159;28;20036;-78
2020/12/04 02:44:33;;;;;;;11.48;5.28;;;30.30;80.20;;;;;;5033497;28;20037;-77
2020/12/04 02:47:01;;;;;;;9.82;4.93;;;30.50;78.80;;;;;;5043884;28;20426;-76
2020/12/04 02:49:28;;;;;;;14.63;5.35;;;30.50;79.10;;;;;;5030630;28;20513;-76
2020/12/04 02:51:57;;;;;;;13.05;5.10;;;30.70;78.10;;;;;;5019716;28;20024;-76
2020/12/04 02:54:25;;;;;;;10.70;5.00;;;30.10;78.50;;;;;;5012133;28;20510;-76
2020/12/04 02:56:52;;;;;;;12.82;5.40;;;29.80;80.20;;;;;;5026727;28;20056;-75
2020/12/04 02:59:19;;;;;;;9.23;5.63;;;29.60;82.00;;;;;;5015967;28;20410;-75
2020/12/04 03:01:46;;;;;;;12.32;5.43;;;29.60;80.10;;;;;;5031939;28;20083;-76
2020/12/04 03:04:14;;;;;;;12.80;5.72;;;29.80;78.30;;;;;;5022151;28;20416;-75
2020/12/04 03:06:41;;;;;;;12.70;5.45;;;30.30;77.80;;;;;;5024334;28;20029;-76
2020/12/04 03:09:09;;;;;;;9.25;5.70;;;30.50;78.90;;;;;;5020943;28;20184;-78
2020/12/04 03:11:36;;;;;;;11.45;5.85;;;30.90;76.40;;;;;;5028415;28;20025;-80
2020/12/04 03:14:03;;;;;;;13.48;5.70;;;30.20;77.40;;;;;;5019481;23;20935;-76
2020/12/04 03:16:31;;;;;;;12.75;5.15;;;30.00;79.70;;;;;;5021679;23;20422;-76
2020/12/04 03:18:58;;;;;;;12.60;6.28;;;30.10;80.20;;;;;;5004361;28;20801;-76
2020/12/04 03:21:25;;;;;;;13.07;6.68;;;30.40;79.30;;;;;;4997075;28;20033;-76
2020/12/04 03:23:53;;;;;;;13.88;7.38;;;30.10;78.60;;;;;;5014513;23;20058;-75
2020/12/04 03:26:20;;;;;;;11.80;5.93;;;29.30;80.80;;;;;;4997563;28;20031;-75
2020/12/04 03:28:47;;;;;;;14.52;6.47;;;29.50;82.40;;;;;;5014709;28;20022;-76
2020/12/04 03:31:15;;;;;;;14.00;5.65;;;29.50;82.10;;;;;;5023205;23;20144;-75
2020/12/04 03:33:42;;;;;;;12.70;5.95;;;29.50;82.70;;;;;;5015565;28;20057;-75
2020/12/04 03:36:09;;;;;;;15.05;6.38;;;29.20;84.60;;;;;;5014300;28;20507;-76
2020/12/04 03:38:37;;;;;;;12.07;6.72;;;28.70;87.30;;;;;;4992712;28;20510;-76
2020/12/04 03:41:04;;;;;;;17.45;7.38;;;28.90;84.50;;;;;;4989061;28;20034;-75
2020/12/04 03:43:31;;;;;;;14.98;7.38;;;28.70;84.70;;;;;;4995109;28;20026;-76
2020/12/04 03:45:59;;;;;;;14.00;5.95;;;28.70;85.50;;;;;;4993774;28;20046;-76
2020/12/04 03:48:26;;;;;;;12.20;6.63;;;28.90;85.80;;;;;;5021524;22;20532;-75
2020/12/04 03:50:53;;;;;;;11.43;6.13;;;28.90;85.20;;;;;;5007133;28;20057;-75
2020/12/04 03:53:21;;;;;;;10.90;5.82;;;28.30;84.60;;;;;;5012224;28;20483;-75
2020/12/04 03:55:48;;;;;;;15.45;6.32;;;28.00;85.30;;;;;;5013059;28;20443;-76
2020/12/04 03:58:15;;;;;;;11.50;5.53;;;28.20;84.60;;;;;;5014839;28;20104;-75
2020/12/04 04:00:42;;;;;;;12.18;6.15;;;28.30;84.40;;;;;;5012473;28;20097;-75
2020/12/04 04:03:10;;;;;;;11.82;5.57;;;28.40;82.90;;;;;;5011624;28;20034;-75
2020/12/04 04:05:37;;;;;;;8.95;5.07;;;28.40;81.40;;;;;;5010376;28;20038;-75
2020/12/04 04:08:05;;;;;;;10.15;4.38;;;28.20;80.90;;;;;;5014532;28;20386;-75
2020/12/04 04:10:32;;;;;;;7.15;4.25;;;28.30;82.40;;;;;;5002467;28;20080;-75
2020/12/04 04:12:59;;;;;;;9.55;4.18;;;28.80;80.10;;;;;;4995487;28;20018;-75
2020/12/04 04:15:27;;;;;;;8.00;3.63;;;28.60;80.80;;;;;;5007843;28;20025;-78
2020/12/04 04:17:54;;;;;;;7.47;4.10;;;28.50;77.90;;;;;;5014771;28;20521;-75
2020/12/04 04:20:21;;;;;;;11.85;4.80;;;28.00;78.60;;;;;;5027420;22;20046;-78
2020/12/04 04:22:49;;;;;;;8.70;3.83;;;28.40;79.30;;;;;;5013891;28;20169;-75
2020/12/04 04:25:16;;;;;;;10.65;3.97;;;28.30;79.80;;;;;;5013215;28;20037;-75
2020/12/04 04:27:44;;;;;;;10.70;3.45;;;28.10;77.90;;;;;;5013048;28;20026;-75
2020/12/04 04:30:11;;;;;;;8.82;3.85;;;27.70;80.00;;;;;;5008795;28;20441;-75
2020/12/04 04:32:38;;;;;;;8.35;3.38;;;27.60;80.30;;;;;;5006452;28;20121;-75
2020/12/04 04:35:07;;;;;;;7.57;3.50;;;27.40;81.80;;;;;;5008105;28;20386;-74
2020/12/04 04:37:34;;;;;;;13.73;3.72;;;27.30;82.30;;;;;;5009466;28;20049;-74
2020/12/04 04:40:03;;;;;;;5.47;3.13;;;27.60;82.80;;;;;;5008527;28;20116;-75
2020/12/04 04:42:30;;;;;;;7.55;2.92;;;27.60;80.20;;;;;;5009316;28;20029;-75
2020/12/04 04:44:58;;;;;;;8.60;3.72;;;27.60;79.40;;;;;;5006220;28;20060;-75
2020/12/04 04:47:30;;;;;;;7.22;2.95;;;27.70;77.40;;;;;;5008878;28;20116;-75
2020/12/04 04:49:58;;;;;;;11.55;3.70;;;27.60;79.50;;;;;;5005767;28;20034;-75
2020/12/04 04:52:27;;;;;;;11.25;3.40;;;27.70;78.20;;;;;;5006981;28;20111;-75
2020/12/04 04:54:55;;;;;;;12.55;3.38;;;27.70;78.20;;;;;;5008587;28;20026;-76
2020/12/04 04:57:24;;;;;;;9.15;3.70;;;27.50;79.20;;;;;;5009458;28;20030;-76
2020/12/04 04:59:54;;;;;;;7.68;3.63;;;27.50;79.80;;;;;;5007962;28;20064;-75
2020/12/04 05:02:22;;;;;;;10.40;4.40;;;27.60;80.00;;;;;;5010607;28;20481;-75
2020/12/04 05:04:55;;;;;;;19.80;9.02;;;27.30;80.30;;;;;;5011167;28;20068;-76
2020/12/04 05:07:35;;;;;;;10.68;3.72;;;27.30;82.90;;;;;;5010701;28;20025;-76
2020/12/04 05:10:15;;;;;;;10.15;3.67;;;27.00;85.90;;;;;;5011163;28;20388;-76
2020/12/04 05:12:45;;;;;;;7.68;2.50;;;27.10;85.90;;;;;;5008505;28;20427;-76
2020/12/04 05:15:25;;;;;;;8.88;2.90;;;26.90;85.50;;;;;;5011565;28;20037;-76
2020/12/04 05:18:17;;;;;;;9.60;2.95;;;27.00;84.90;;;;;;5013505;28;20038;-76
2020/12/04 05:20:51;;;;;;;11.20;3.25;;;27.00;85.80;;;;;;5018912;22;20494;-76
2020/12/04 05:23:19;;;;;;;13.13;3.58;;;27.10;86.20;;;;;;5016862;22;20583;-76
2020/12/04 05:25:49;;;;;;;10.80;3.38;;;26.80;89.40;;;;;;5041253;22;20084;-78
2020/12/04 05:28:21;;;;;;;8.73;3.15;;;26.60;90.80;;;;;;5015732;23;20444;-76
2020/12/04 05:31:06;;;;;;;14.85;3.00;;;26.40;91.40;;;;;;5012887;28;20101;-77
2020/12/04 05:33:33;;;;;;;12.50;2.90;;;26.30;91.00;;;;;;5015413;28;20418;-76
2020/12/04 05:36:03;;;;;;;9.98;3.60;;;26.30;91.60;;;;;;5024435;28;20025;-78
2020/12/04 05:38:31;;;;;;;13.93;3.17;;;26.30;91.30;;;;;;5032152;22;20053;-77
2020/12/04 05:41:07;;;;;;;10.50;3.17;;;26.30;91.50;;;;;;4998780;28;20439;-76
2020/12/04 05:43:36;;;;;;;11.32;3.97;;;26.30;91.70;;;;;;5012537;28;20038;-76
2020/12/04 05:46:26;;;;;;;11.13;3.50;;;26.10;92.10;;;;;;4999873;28;20041;-75
2020/12/04 05:48:58;;;;;;;8.63;3.45;;;26.10;92.30;;;;;;5004794;28;20030;-76
2020/12/04 05:51:27;;;;;;;11.43;3.35;;;26.10;91.30;;;;;;4997058;28;20034;-75
2020/12/04 05:56:24;;;;;;;12.23;3.78;;;25.70;92.10;;;;;;5024283;23;20128;-75
2020/12/04 05:58:56;;;;;;;10.63;3.25;;;25.70;92.30;;;;;;5010913;28;20141;-75
2020/12/04 06:01:24;;;;;;;10.52;2.50;;;25.70;92.50;;;;;;4998346;28;20101;-75
2020/12/04 06:03:56;;;;;;;9.63;3.10;;;25.70;91.40;;;;;;5001848;28;20111;-76
2020/12/04 06:06:31;;;;;;;14.07;3.30;;;25.80;91.50;;;;;;5009427;28;20041;-76
2020/12/04 06:09:08;;;;;;;8.95;2.88;;;25.90;90.80;;;;;;5002266;28;20030;-75
2020/12/04 06:11:43;;;;;;;8.07;2.88;;;25.90;90.80;;;;;;5011625;28;20034;-76
2020/12/04 06:14:25;;;;;;;10.35;3.70;;;26.00;90.00;;;;;;5009051;28;20030;-74
2020/12/04 06:17:04;;;;;;;11.63;3.22;;;26.00;89.50;;;;;;5011350;28;20030;-77
2020/12/04 06:19:37;;;;;;;7.07;2.13;;;25.80;90.10;;;;;;5007178;28;20018;-74
2020/12/04 06:22:14;;;;;;;8.70;2.72;;;25.80;89.50;;;;;;5009261;28;20057;-76
2020/12/04 06:27:41;;;;;;;8.65;3.03;;;25.60;90.00;;;;;;5019395;22;20077;-75
2020/12/04 06:30:10;;;;;;;11.70;2.35;;;25.60;87.40;;;;;;5020448;28;20030;-75
2020/12/04 06:32:49;;;;;;;9.95;2.83;;;25.50;87.00;;;;;;5008718;28;20018;-75
2020/12/04 06:35:43;;;;;;;6.47;2.60;;;25.60;90.40;;;;;;5017858;28;20132;-75
2020/12/04 06:38:41;;;;;;;9.80;3.08;;;25.70;87.10;;;;;;5030236;28;20029;-75
2020/12/04 06:41:34;;;;;;;9.95;3.10;;;25.60;89.70;;;;;;5027818;28;20124;-75
2020/12/04 06:44:03;;;;;;;8.82;2.83;;;25.60;91.00;;;;;;5026250;28;20072;-75
2020/12/04 06:46:38;;;;;;;10.10;3.03;;;25.50;92.00;;;;;;5031290;28;20079;-75
2020/12/04 06:49:40;;;;;;;9.80;2.80;;;25.50;91.30;;;;;;5025970;28;20259;-75
2020/12/04 06:52:09;;;;;;;12.90;3.45;;;25.50;91.50;;;;;;5031176;28;20033;-75
2020/12/04 06:54:39;;;;;;;9.32;2.25;;;25.50;91.80;;;;;;5027481;28;20024;-75
2020/12/04 06:57:07;;;;;;;8.75;2.45;;;25.60;90.80;;;;;;5031066;28;20061;-75
2020/12/04 06:59:37;;;;;;;8.40;2.10;;;25.60;89.90;;;;;;5023512;28;20442;-75
2020/12/04 07:02:26;;;;;;;10.13;3.45;;;25.60;87.80;;;;;;5009598;28;20049;-75
2020/12/04 07:04:56;;;;;;;10.98;2.53;;;25.70;89.50;;;;;;5009944;28;20045;-75
2020/12/04 07:07:28;;;;;;;7.10;1.65;;;25.70;84.40;;;;;;5011561;28;20110;-75
2020/12/04 07:10:01;;;;;;;8.07;2.25;;;25.70;82.90;;;;;;5017670;28;20025;-75
2020/12/04 07:12:30;;;;;;;8.07;1.92;;;25.70;82.40;;;;;;5029976;28;20064;-75
2020/12/04 07:14:59;;;;;;;6.53;1.65;;;25.70;84.10;;;;;;5027689;28;20030;-75
2020/12/04 07:17:29;;;;;;;5.78;2.30;;;25.60;82.20;;;;;;5031424;28;20017;-75
2020/12/04 07:20:01;;;;;;;8.73;2.60;;;25.50;82.60;;;;;;5027372;28;20034;-75
2020/12/04 07:22:28;;;;;;;7.93;2.30;;;25.30;85.30;;;;;;5025026;28;20022;-75
2020/12/04 07:24:57;;;;;;;8.98;2.50;;;25.30;84.60;;;;;;5017444;28;20029;-75
2020/12/04 07:27:29;;;;;;;9.90;2.65;;;25.20;85.60;;;;;;4998358;28;20046;-75
2020/12/04 07:29:57;;;;;;;7.28;2.08;;;25.10;86.30;;;;;;5038718;22;20057;-75
2020/12/04 07:32:26;;;;;;;6.72;1.92;;;25.20;84.60;;;;;;4991807;28;20045;-75
2020/12/04 07:34:54;;;;;;;10.35;2.65;;;25.20;79.10;;;;;;4989501;28;20514;-74
2020/12/04 07:37:28;;;;;;;8.48;2.00;;;25.20;79.10;;;;;;4989228;28;20029;-75
2020/12/04 07:39:55;;;;;;;8.15;1.80;;;25.10;78.50;;;;;;5023124;22;20057;-75
2020/12/04 07:42:24;;;;;;;8.65;2.20;;;25.10;77.70;;;;;;5031088;28;20018;-75
2020/12/04 07:44:54;;;;;;;5.85;1.80;;;25.20;76.80;;;;;;5024075;22;20072;-75
2020/12/04 07:47:22;;;;;;;7.40;1.95;;;25.20;78.90;;;;;;5030847;28;20030;-75
2020/12/04 07:50:00;;;;;;;6.70;1.83;;;25.10;78.20;;;;;;5026833;28;20030;-75
2020/12/04 07:52:35;;;;;;;9.27;3.13;;;25.00;78.90;;;;;;5016852;28;20026;-75
2020/12/04 07:55:04;;;;;;;7.55;1.88;;;24.90;78.90;;;;;;5005152;28;20033;-75
2020/12/04 08:00:16;;;;;;;7.47;1.95;;;24.80;78.30;;;;;;5033830;22;20041;-75
2020/12/04 08:02:44;;;;;;;10.02;2.50;;;24.90;79.40;;;;;;5031045;28;20027;-75
2020/12/04 08:05:22;;;;;;;6.88;2.25;;;24.80;80.80;;;;;;5015235;28;20398;-75
2020/12/04 08:07:53;;;;;;;7.97;2.20;;;24.70;81.80;;;;;;5011403;28;20024;-75
2020/12/04 08:10:21;;;;;;;8.82;3.13;;;24.60;81.40;;;;;;5007488;28;20022;-75
2020/12/04 08:12:50;;;;;;;9.95;2.30;;;24.50;81.30;;;;;;5013106;28;20497;-75
2020/12/04 08:15:21;;;;;;;8.02;2.15;;;24.50;78.90;;;;;;5011001;28;20099;-75
2020/12/04 08:17:48;;;;;;;11.15;3.20;;;24.50;77.70;;;;;;5014948;28;20053;-75
2020/12/04 08:20:19;;;;;;;9.00;2.58;;;24.50;79.80;;;;;;5008582;28;20053;-74
2020/12/04 08:22:50;;;;;;;8.73;2.33;;;24.40;80.00;;;;;;5002482;28;20018;-75
2020/12/04 08:27:50;;;;;;;7.40;2.38;;;24.30;81.00;;;;;;5019135;22;20526;-75
2020/12/04 08:30:22;;;;;;;5.85;2.20;;;24.30;78.70;;;;;;5012297;28;20034;-75
2020/12/04 08:33:03;;;;;;;5.68;1.77;;;24.20;76.50;;;;;;5014504;28;20029;-75
2020/12/04 08:35:44;;;;;;;9.10;2.55;;;24.30;77.10;;;;;;5011902;28;20386;-75
2020/12/04 08:38:14;;;;;;;7.10;2.13;;;24.30;74.90;;;;;;5014122;28;20570;-75
2020/12/04 08:40:49;;;;;;;7.00;2.10;;;24.30;73.90;;;;;;5012609;28;20490;-75
2020/12/04 08:43:25;;;;;;;6.30;2.28;;;24.20;75.60;;;;;;5013037;28;20033;-75
2020/12/04 08:45:57;;;;;;;9.63;2.60;;;24.20;78.00;;;;;;5011045;28;20586;-75
2020/12/04 08:48:32;;;;;;;8.18;2.58;;;24.10;78.70;;;;;;4994690;28;20497;-75
2020/12/04 08:51:05;;;;;;;8.52;2.33;;;24.00;79.40;;;;;;5001954;28;20027;-75
2020/12/04 08:53:34;;;;;;;9.52;3.03;;;23.90;80.20;;;;;;5009192;28;20463;-75
2020/12/04 08:56:04;;;;;;;6.78;2.45;;;23.90;80.80;;;;;;5005673;28;20379;-75
2020/12/04 08:58:32;;;;;;;6.68;2.65;;;23.70;82.20;;;;;;5001656;28;20033;-75
2020/12/04 09:01:00;;;;;;;10.57;2.60;;;23.70;82.00;;;;;;5016583;22;20057;-76
2020/12/04 09:03:30;;;;;;;7.15;2.88;;;23.60;81.50;;;;;;5003232;28;20475;-75
2020/12/04 09:05:57;;;;;;;11.60;3.15;;;23.60;82.70;;;;;;4988372;28;20050;-75
2020/12/04 09:08:24;;;;;;;10.23;3.60;;;23.60;84.40;;;;;;4985984;28;20053;-75
2020/12/04 09:10:52;;;;;;;9.88;3.70;;;23.50;86.20;;;;;;4988271;28;20105;-75
2020/12/04 09:13:19;;;;;;;8.95;3.08;;;23.40;86.80;;;;;;4993093;28;20491;-75
2020/12/04 09:15:47;;;;;;;9.23;3.67;;;23.40;86.40;;;;;;4981397;28;20098;-76
2020/12/04 09:18:16;;;;;;;10.63;3.00;;;23.40;86.70;;;;;;4992599;28;20025;-75
2020/12/04 09:20:43;;;;;;;10.45;3.38;;;23.30;86.60;;;;;;4990605;28;20042;-75
2020/12/04 09:23:11;;;;;;;8.75;2.80;;;23.20;85.20;;;;;;4991107;28;20022;-75
2020/12/04 09:25:38;;;;;;;6.57;2.90;;;23.20;84.20;;;;;;4991851;28;20034;-75
2020/12/04 09:28:06;;;;;;;9.43;2.60;;;23.20;83.50;;;;;;4992673;28;20029;-75
2020/12/04 09:30:33;;;;;;;8.27;2.67;;;23.30;80.60;;;;;;4989558;28;20503;-75
2020/12/04 09:33:00;;;;;;;8.15;2.58;;;23.20;79.60;;;;;;4993437;28;20427;-75
2020/12/04 09:35:29;;;;;;;8.85;2.30;;;23.20;80.00;;;;;;4990140;28;20502;-75
2020/12/04 09:37:56;;;;;;;6.47;2.33;;;23.20;78.70;;;;;;4984031;28;20034;-76
2020/12/04 09:40:24;;;;;;;9.20;2.67;;;23.10;79.10;;;;;;4988884;28;20045;-75
2020/12/04 09:42:51;;;;;;;8.15;2.25;;;23.20;81.00;;;;;;4991453;28;20530;-75
2020/12/04 09:45:18;;;;;;;12.65;4.22;;;23.10;81.70;;;;;;4986053;28;20498;-75
2020/12/04 09:47:46;;;;;;;9.90;3.05;;;23.10;80.30;;;;;;4990373;28;20101;-74
2020/12/04 09:50:15;;;;;;;7.32;3.03;;;23.20;79.80;;;;;;4991313;28;20038;-75
2020/12/04 09:52:42;;;;;;;19.00;4.63;;;23.30;79.50;;;;;;4992989;28;20026;-76
2020/12/04 09:55:10;;;;;;;12.35;4.47;;;23.20;85.00;;;;;;4991230;28;20027;-75
2020/12/04 09:57:38;;;;;;;14.77;4.32;;;23.10;85.90;;;;;;4993327;28;20034;-75
2020/12/04 10:00:07;;;;;;;12.38;4.13;;;23.20;86.90;;;;;;4989966;28;20518;-75
2020/12/04 10:02:35;;;;;;;12.35;4.18;;;23.10;87.60;;;;;;4987429;28;20026;-75
2020/12/04 10:05:03;;;;;;;11.18;4.35;;;23.00;88.80;;;;;;4998305;28;20034;-75
2020/12/04 10:07:30;;;;;;;10.93;4.68;;;23.00;88.10;;;;;;4988737;28;20122;-75
2020/12/04 10:09:57;;;;;;;16.98;6.32;;;23.00;88.80;;;;;;4984245;28;20015;-75
2020/12/04 10:12:25;;;;;;;10.23;4.22;;;22.90;90.00;;;;;;5007850;22;20023;-75
2020/12/04 10:14:55;;;;;;;12.15;3.47;;;22.90;90.30;;;;;;5011333;28;20046;-75
2020/12/04 10:17:22;;;;;;;13.82;4.15;;;22.90;90.70;;;;;;5003955;28;20120;-75
2020/12/04 10:19:50;;;;;;;9.02;3.70;;;22.80;90.70;;;;;;5005194;28;20109;-75
2020/12/04 10:22:17;;;;;;;10.40;3.88;;;22.80;91.00;;;;;;5008405;28;20359;-75
2020/12/04 10:24:44;;;;;;;14.82;5.50;;;22.70;91.20;;;;;;5008994;28;20033;-73
2020/12/04 10:27:12;;;;;;;11.75;4.53;;;22.70;93.00;;;;;;5005323;28;20032;-75
2020/12/04 10:29:39;;;;;;;13.77;5.18;;;22.70;94.40;;;;;;5007605;28;20155;-75
2020/12/04 10:32:06;;;;;;;17.08;5.68;;;22.50;96.30;;;;;;5009786;28;20038;-75
2020/12/04 10:34:34;;;;;;;17.90;6.40;;;22.50;98.40;;;;;;5005741;28;20026;-74
2020/12/04 10:37:01;;;;;;;17.52;6.88;;;22.40;99.90;;;;;;5008953;28;20029;-74
2020/12/04 10:39:29;;;;;;;15.77;6.20;;;22.30;99.90;;;;;;5004414;28;20104;-75
2020/12/04 10:41:56;;;;;;;18.67;6.60;;;22.20;99.90;;;;;;5007547;28;20076;-74
2020/12/04 10:44:23;;;;;;;16.75;6.07;;;22.10;99.90;;;;;;5005332;28;20018;-75
2020/12/04 10:46:51;;;;;;;18.67;6.63;;;22.00;99.90;;;;;;5008276;28;20095;-75
2020/12/04 10:49:18;;;;;;;16.13;7.00;;;22.00;99.90;;;;;;5006905;28;20018;-75
2020/12/04 10:51:53;;;;;;;20.70;7.65;;;22.00;99.90;;;;;;5010098;28;20056;-75
2020/12/04 10:54:21;;;;;;;22.10;7.28;;;22.00;99.90;;;;;;5001999;28;20037;-75
2020/12/04 10:56:48;;;;;;;18.95;6.90;;;21.90;99.90;;;;;;5007431;28;20022;-75
2020/12/04 10:59:16;;;;;;;21.63;7.88;;;21.90;99.90;;;;;;5004103;28;20030;-75
2020/12/04 11:01:49;;;;;;;26.33;8.35;;;21.90;99.90;;;;;;5003556;28;20041;-75
2020/12/04 11:07:01;;;;;;;28.92;6.78;;;21.60;99.90;;;;;;5005261;28;20149;-75
2020/12/04 11:09:31;;;;;;;29.33;6.35;;;21.40;99.90;;;;;;5005686;28;20430;-75
2020/12/04 11:11:58;;;;;;;31.38;6.75;;;21.30;99.90;;;;;;5006244;28;20060;-75
2020/12/04 11:14:26;;;;;;;36.70;7.00;;;21.20;99.90;;;;;;5008545;28;20048;-75
2020/12/04 11:16:53;;;;;;;33.50;6.13;;;21.20;99.90;;;;;;5008221;28;20048;-75
2020/12/04 11:19:21;;;;;;;28.35;6.05;;;21.10;99.90;;;;;;5003819;28;20038;-75
2020/12/04 11:21:48;;;;;;;35.05;5.95;;;21.10;99.90;;;;;;5003854;28;20026;-75
2020/12/04 11:24:16;;;;;;;41.03;6.45;;;21.10;99.90;;;;;;5007331;28;20057;-75
2020/12/04 11:26:43;;;;;;;30.15;6.85;;;21.10;99.90;;;;;;5007732;28;20136;-74
2020/12/04 11:29:10;;;;;;;30.50;6.30;;;21.10;99.90;;;;;;5000942;28;20026;-75
2020/12/04 11:31:37;;;;;;;30.92;5.07;;;21.10;99.90;;;;;;5011046;28;20477;-75
2020/12/04 11:34:05;;;;;;;32.20;6.78;;;21.20;99.90;;;;;;5002901;28;20156;-74
2020/12/04 11:36:34;;;;;;;30.30;5.35;;;21.10;99.90;;;;;;5009577;28;20026;-75
2020/12/04 11:39:02;;;;;;;28.13;5.30;;;21.10;99.90;;;;;;5008077;28;20088;-75
2020/12/04 11:41:32;;;;;;;23.65;5.43;;;21.10;99.90;;;;;;5006638;28;20092;-75
2020/12/04 11:44:00;;;;;;;27.08;6.30;;;21.00;99.90;;;;;;5002997;28;20038;-75
2020/12/04 11:46:27;;;;;;;28.35;5.60;;;21.00;99.90;;;;;;5005410;28;20096;-75
2020/12/04 11:48:54;;;;;;;32.20;5.30;;;21.00;99.90;;;;;;5007429;28;20548;-75
2020/12/04 11:51:24;;;;;;;36.47;6.18;;;21.00;99.90;;;;;;5005558;28;20026;-75
2020/12/04 11:53:51;;;;;;;24.40;5.55;;;21.00;99.90;;;;;;5006557;28;20390;-75
2020/12/04 11:56:18;;;;;;;27.50;6.00;;;21.00;99.90;;;;;;5005565;28;20046;-75
2020/12/04 11:58:47;;;;;;;31.17;6.13;;;21.00;99.90;;;;;;5011582;28;20029;-75
2020/12/04 12:01:14;;;;;;;32.63;6.40;;;21.00;99.90;;;;;;5014801;28;20033;-75
2020/12/04 12:03:42;;;;;;;24.67;4.97;;;21.00;99.90;;;;;;5009313;28;20442;-74
2020/12/04 12:06:09;;;;;;;23.83;4.53;;;20.90;99.90;;;;;;5010817;28;20045;-74
2020/12/04 12:08:37;;;;;;;25.35;4.22;;;20.80;99.90;;;;;;5011417;28;20018;-74
2020/12/04 12:11:04;;;;;;;26.42;4.55;;;20.80;99.90;;;;;;5010121;28;20072;-74
2020/12/04 12:13:32;;;;;;;19.73;4.85;;;20.80;99.90;;;;;;5011453;28;20100;-74
2020/12/04 12:15:59;;;;;;;21.13;4.03;;;20.80;99.90;;;;;;5010733;28;20493;-73
2020/12/04 12:18:26;;;;;;;32.58;6.72;;;20.80;99.90;;;;;;5004444;28;20109;-73
2020/12/04 12:20:54;;;;;;;20.67;4.05;;;20.80;99.90;;;;;;5009439;28;20026;-73
2020/12/04 12:23:21;;;;;;;26.70;6.65;;;20.80;99.90;;;;;;5006098;28;20030;-74
2020/12/04 12:25:48;;;;;;;26.17;5.57;;;20.70;99.90;;;;;;5007288;28;20052;-74
2020/12/04 12:28:16;;;;;;;28.75;4.75;;;20.70;99.90;;;;;;5008316;28;20033;-74
2020/12/04 12:30:43;;;;;;;24.60;5.18;;;20.70;99.90;;;;;;5008384;28;20037;-73
2020/12/04 12:33:10;;;;;;;24.30;5.25;;;20.70;99.90;;;;;;5010120;28;20026;-74
2020/12/04 12:35:38;;;;;;;23.95;4.38;;;20.70;99.90;;;;;;5010766;28;20391;-74
2020/12/04 12:38:05;;;;;;;22.35;4.15;;;20.70;99.90;;;;;;5011302;28;20014;-74
2020/12/04 12:40:33;;;;;;;27.63;5.10;;;20.70;99.90;;;;;;5010650;28;20510;-75
2020/12/04 12:43:00;;;;;;;20.95;5.15;;;20.70;99.90;;;;;;5007738;28;20041;-75
2020/12/04 12:45:27;;;;;;;29.30;5.45;;;20.60;99.90;;;;;;5003581;28;20514;-75
2020/12/04 12:47:54;;;;;;;25.88;4.80;;;20.60;99.90;;;;;;5007002;28;20041;-75
2020/12/04 12:50:22;;;;;;;24.98;4.00;;;20.60;99.90;;;;;;5002797;28;20755;-75
2020/12/04 12:52:49;;;;;;;27.92;6.22;;;20.60;99.90;;;;;;5009562;28;20463;-74
2020/12/04 12:55:16;;;;;;;24.70;5.85;;;20.50;99.90;;;;;;5011155;28;20053;-75
2020/12/04 12:57:44;;;;;;;27.85;5.25;;;20.60;99.90;;;;;;5011393;28;20042;-75
2020/12/04 13:00:11;;;;;;;24.95;5.40;;;20.50;99.90;;;;;;5008668;28;20034;-75
2020/12/04 13:02:38;;;;;;;24.75;5.13;;;20.50;99.90;;;;;;5011732;28;20395;-75
2020/12/04 13:05:31;;;;;;;31.33;6.32;;;20.50;99.90;;;;;;5010234;28;20030;-75